sensor_id;sensor_type;location;lat;lon;timestamp;P1;durP1;ratioP1;P2;durP2;ratioP2
19341;SDS011;9807;48.258;12.690;2023-06-10T00:02:20;4.10;;;3.70;;
19341;SDS011;9807;48.258;12.690;2023-06-10T00:04:46;12.83;;;4.00;;
19341;SDS011;9807;48.258;12.690;2023-06-10T00:07:12;4.63;;;3.97;;
19341;SDS011;9807;48.258;12.690;2023-06-10T00:09:38;4.53;;;4.13;;
19341;SDS011;9807;48.258;12.690;2023-06-10T00:12:07;4.83;;;4.33;;
19341;SDS011;9807;48.258;12.690;2023-06-10T00:14:37;4.87;;;4.47;;
19341;SDS011;9807;48.258;12.690;2023-06-10T00:17:05;4.97;;;4.47;;
19341;SDS011;9807;48.258;12.690;2023-06-10T00:19:34;4.57;;;4.17;;
19341;SDS011;9807;48.258;12.690;2023-06-10T00:22:00;5.00;;;4.50;;
19341;SDS011;9807;48.258;12.690;2023-06-10T00:24:26;5.07;;;4.57;;
19341;SDS011;9807;48.258;12.690;2023-06-10T00:26:51;4.70;;;4.30;;
19341;SDS011;9807;48.258;12.690;2023-06-10T00:29:17;4.70;;;4.10;;
19341;SDS011;9807;48.258;12.690;2023-06-10T00:31:44;5.10;;;4.13;;
19341;SDS011;9807;48.258;12.690;2023-06-10T00:34:11;4.50;;;4.10;;
19341;SDS011;9807;48.258;12.690;2023-06-10T00:36:38;5.17;;;4.27;;
19341;SDS011;9807;48.258;12.690;2023-06-10T00:39:04;4.77;;;4.00;;
19341;SDS011;9807;48.258;12.690;2023-06-10T00:41:30;4.77;;;4.37;;
19341;SDS011;9807;48.258;12.690;2023-06-10T00:43:56;5.43;;;4.93;;
19341;SDS011;9807;48.258;12.690;2023-06-10T00:46:24;5.03;;;4.53;;
19341;SDS011;9807;48.258;12.690;2023-06-10T00:48:51;4.97;;;4.47;;
19341;SDS011;9807;48.258;12.690;2023-06-10T00:51:17;4.63;;;4.20;;
19341;SDS011;9807;48.258;12.690;2023-06-10T00:53:44;5.37;;;4.27;;
19341;SDS011;9807;48.258;12.690;2023-06-10T00:56:10;4.97;;;4.50;;
19341;SDS011;9807;48.258;12.690;2023-06-10T00:58:36;4.90;;;4.50;;
19341;SDS011;9807;48.258;12.690;2023-06-10T01:01:02;4.40;;;4.00;;
19341;SDS011;9807;48.258;12.690;2023-06-10T01:03:29;4.80;;;4.30;;
19341;SDS011;9807;48.258;12.690;2023-06-10T01:11:34;4.87;;;4.47;;
19341;SDS011;9807;48.258;12.690;2023-06-10T01:14:05;5.13;;;4.63;;
19341;SDS011;9807;48.258;12.690;2023-06-10T01:16:34;5.10;;;4.70;;
19341;SDS011;9807;48.258;12.690;2023-06-10T01:19:02;5.00;;;4.50;;
19341;SDS011;9807;48.258;12.690;2023-06-10T01:21:28;4.97;;;4.53;;
19341;SDS011;9807;48.258;12.690;2023-06-10T01:23:54;5.23;;;4.73;;
19341;SDS011;9807;48.258;12.690;2023-06-10T01:26:22;5.50;;;5.00;;
19341;SDS011;9807;48.258;12.690;2023-06-10T01:29:16;5.67;;;4.70;;
19341;SDS011;9807;48.258;12.690;2023-06-10T01:34:14;5.30;;;4.80;;
19341;SDS011;9807;48.258;12.690;2023-06-10T01:36:43;7.17;;;4.97;;
19341;SDS011;9807;48.258;12.690;2023-06-10T01:39:12;5.50;;;4.80;;
19341;SDS011;9807;48.258;12.690;2023-06-10T01:41:42;5.27;;;4.77;;
19341;SDS011;9807;48.258;12.690;2023-06-10T01:44:08;5.30;;;4.80;;
19341;SDS011;9807;48.258;12.690;2023-06-10T01:46:34;6.00;;;5.40;;
19341;SDS011;9807;48.258;12.690;2023-06-10T01:49:00;7.20;;;5.37;;
19341;SDS011;9807;48.258;12.690;2023-06-10T01:51:26;5.13;;;4.53;;
19341;SDS011;9807;48.258;12.690;2023-06-10T01:53:51;7.50;;;5.10;;
19341;SDS011;9807;48.258;12.690;2023-06-10T01:56:17;5.67;;;4.47;;
19341;SDS011;9807;48.258;12.690;2023-06-10T01:58:45;4.80;;;4.40;;
19341;SDS011;9807;48.258;12.690;2023-06-10T02:01:11;5.67;;;5.07;;
19341;SDS011;9807;48.258;12.690;2023-06-10T02:03:40;5.53;;;5.03;;
19341;SDS011;9807;48.258;12.690;2023-06-10T02:06:06;5.03;;;4.53;;
19341;SDS011;9807;48.258;12.690;2023-06-10T02:08:32;5.13;;;4.63;;
19341;SDS011;9807;48.258;12.690;2023-06-10T02:11:00;5.30;;;4.80;;
19341;SDS011;9807;48.258;12.690;2023-06-10T02:13:26;6.67;;;4.93;;
19341;SDS011;9807;48.258;12.690;2023-06-10T02:15:51;5.33;;;4.83;;
19341;SDS011;9807;48.258;12.690;2023-06-10T02:18:19;5.10;;;4.70;;
19341;SDS011;9807;48.258;12.690;2023-06-10T02:20:45;5.10;;;4.70;;
19341;SDS011;9807;48.258;12.690;2023-06-10T02:23:11;5.20;;;4.70;;
19341;SDS011;9807;48.258;12.690;2023-06-10T02:25:37;5.17;;;4.67;;
19341;SDS011;9807;48.258;12.690;2023-06-10T02:28:03;8.00;;;6.30;;
19341;SDS011;9807;48.258;12.690;2023-06-10T02:30:31;10.50;;;6.90;;
19341;SDS011;9807;48.258;12.690;2023-06-10T02:33:01;5.30;;;4.80;;
19341;SDS011;9807;48.258;12.690;2023-06-10T02:35:26;5.17;;;4.67;;
19341;SDS011;9807;48.258;12.690;2023-06-10T02:37:52;6.77;;;4.97;;
19341;SDS011;9807;48.258;12.690;2023-06-10T02:40:18;6.03;;;5.43;;
19341;SDS011;9807;48.258;12.690;2023-06-10T02:42:43;5.43;;;4.90;;
19341;SDS011;9807;48.258;12.690;2023-06-10T02:45:09;6.37;;;4.90;;
19341;SDS011;9807;48.258;12.690;2023-06-10T02:47:37;5.17;;;4.67;;
19341;SDS011;9807;48.258;12.690;2023-06-10T02:50:04;4.60;;;4.20;;
19341;SDS011;9807;48.258;12.690;2023-06-10T02:52:30;5.10;;;4.60;;
19341;SDS011;9807;48.258;12.690;2023-06-10T02:54:56;5.30;;;4.80;;
19341;SDS011;9807;48.258;12.690;2023-06-10T02:57:25;5.13;;;4.60;;
19341;SDS011;9807;48.258;12.690;2023-06-10T02:59:50;5.83;;;5.20;;
19341;SDS011;9807;48.258;12.690;2023-06-10T03:02:18;5.30;;;4.80;;
19341;SDS011;9807;48.258;12.690;2023-06-10T03:04:45;5.07;;;4.57;;
19341;SDS011;9807;48.258;12.690;2023-06-10T03:07:10;5.33;;;4.83;;
19341;SDS011;9807;48.258;12.690;2023-06-10T03:09:36;5.13;;;4.63;;
19341;SDS011;9807;48.258;12.690;2023-06-10T03:12:02;5.47;;;4.97;;
19341;SDS011;9807;48.258;12.690;2023-06-10T03:14:28;5.40;;;4.63;;
19341;SDS011;9807;48.258;12.690;2023-06-10T03:16:54;5.10;;;4.60;;
19341;SDS011;9807;48.258;12.690;2023-06-10T03:19:20;5.40;;;4.90;;
19341;SDS011;9807;48.258;12.690;2023-06-10T03:21:49;5.90;;;5.03;;
19341;SDS011;9807;48.258;12.690;2023-06-10T03:24:32;6.00;;;5.40;;
19341;SDS011;9807;48.258;12.690;2023-06-10T03:26:58;5.60;;;5.00;;
19341;SDS011;9807;48.258;12.690;2023-06-10T03:29:23;5.93;;;5.33;;
19341;SDS011;9807;48.258;12.690;2023-06-10T03:31:49;4.60;;;4.20;;
19341;SDS011;9807;48.258;12.690;2023-06-10T03:34:15;5.47;;;4.37;;
19341;SDS011;9807;48.258;12.690;2023-06-10T03:36:40;5.57;;;4.97;;
19341;SDS011;9807;48.258;12.690;2023-06-10T03:39:07;5.57;;;5.07;;
19341;SDS011;9807;48.258;12.690;2023-06-10T03:41:34;5.67;;;5.17;;
19341;SDS011;9807;48.258;12.690;2023-06-10T03:44:00;5.40;;;4.90;;
19341;SDS011;9807;48.258;12.690;2023-06-10T03:46:26;8.17;;;5.40;;
19341;SDS011;9807;48.258;12.690;2023-06-10T03:48:51;5.50;;;5.00;;
19341;SDS011;9807;48.258;12.690;2023-06-10T03:51:17;5.00;;;4.50;;
19341;SDS011;9807;48.258;12.690;2023-06-10T03:53:42;5.27;;;4.70;;
19341;SDS011;9807;48.258;12.690;2023-06-10T03:56:08;5.77;;;5.27;;
19341;SDS011;9807;48.258;12.690;2023-06-10T03:58:34;6.60;;;5.97;;
19341;SDS011;9807;48.258;12.690;2023-06-10T04:01:00;7.00;;;4.90;;
19341;SDS011;9807;48.258;12.690;2023-06-10T04:03:25;5.70;;;5.20;;
19341;SDS011;9807;48.258;12.690;2023-06-10T04:05:52;6.63;;;5.83;;
19341;SDS011;9807;48.258;12.690;2023-06-10T04:08:18;6.87;;;6.13;;
19341;SDS011;9807;48.258;12.690;2023-06-10T04:10:43;5.87;;;5.27;;
19341;SDS011;9807;48.258;12.690;2023-06-10T04:13:09;6.13;;;5.50;;
19341;SDS011;9807;48.258;12.690;2023-06-10T04:15:35;6.20;;;5.60;;
19341;SDS011;9807;48.258;12.690;2023-06-10T04:18:01;8.30;;;6.80;;
19341;SDS011;9807;48.258;12.690;2023-06-10T04:20:27;5.97;;;5.37;;
19341;SDS011;9807;48.258;12.690;2023-06-10T04:22:53;6.50;;;5.83;;
19341;SDS011;9807;48.258;12.690;2023-06-10T04:25:26;6.90;;;5.87;;
19341;SDS011;9807;48.258;12.690;2023-06-10T04:27:53;5.43;;;4.93;;
19341;SDS011;9807;48.258;12.690;2023-06-10T04:30:19;6.00;;;5.40;;
19341;SDS011;9807;48.258;12.690;2023-06-10T04:32:45;7.80;;;6.63;;
19341;SDS011;9807;48.258;12.690;2023-06-10T04:35:12;6.80;;;5.83;;
19341;SDS011;9807;48.258;12.690;2023-06-10T04:37:39;6.10;;;5.50;;
19341;SDS011;9807;48.258;12.690;2023-06-10T04:40:06;8.07;;;7.27;;
19341;SDS011;9807;48.258;12.690;2023-06-10T04:42:32;7.00;;;5.33;;
19341;SDS011;9807;48.258;12.690;2023-06-10T04:44:59;6.67;;;5.87;;
19341;SDS011;9807;48.258;12.690;2023-06-10T04:47:25;6.43;;;5.83;;
19341;SDS011;9807;48.258;12.690;2023-06-10T04:49:51;7.43;;;6.07;;
19341;SDS011;9807;48.258;12.690;2023-06-10T04:52:17;8.10;;;6.00;;
19341;SDS011;9807;48.258;12.690;2023-06-10T04:54:43;6.93;;;6.20;;
19341;SDS011;9807;48.258;12.690;2023-06-10T04:57:09;6.37;;;5.77;;
19341;SDS011;9807;48.258;12.690;2023-06-10T04:59:36;7.70;;;6.90;;
19341;SDS011;9807;48.258;12.690;2023-06-10T05:02:03;7.30;;;6.60;;
19341;SDS011;9807;48.258;12.690;2023-06-10T05:04:30;6.63;;;6.00;;
19341;SDS011;9807;48.258;12.690;2023-06-10T05:06:56;7.57;;;5.77;;
19341;SDS011;9807;48.258;12.690;2023-06-10T05:09:21;6.57;;;5.97;;
19341;SDS011;9807;48.258;12.690;2023-06-10T05:11:47;6.80;;;6.20;;
19341;SDS011;9807;48.258;12.690;2023-06-10T05:14:13;7.47;;;6.70;;
19341;SDS011;9807;48.258;12.690;2023-06-10T05:16:41;6.77;;;5.97;;
19341;SDS011;9807;48.258;12.690;2023-06-10T05:19:08;6.60;;;5.90;;
19341;SDS011;9807;48.258;12.690;2023-06-10T05:21:34;9.47;;;7.83;;
19341;SDS011;9807;48.258;12.690;2023-06-10T05:24:00;11.43;;;9.60;;
19341;SDS011;9807;48.258;12.690;2023-06-10T05:26:25;8.20;;;7.27;;
19341;SDS011;9807;48.258;12.690;2023-06-10T05:28:51;8.70;;;6.77;;
19341;SDS011;9807;48.258;12.690;2023-06-10T05:31:17;9.37;;;8.10;;
19341;SDS011;9807;48.258;12.690;2023-06-10T05:33:43;6.53;;;5.83;;
19341;SDS011;9807;48.258;12.690;2023-06-10T05:36:09;9.07;;;7.70;;
19341;SDS011;9807;48.258;12.690;2023-06-10T05:38:34;6.77;;;6.07;;
19341;SDS011;9807;48.258;12.690;2023-06-10T05:41:00;7.43;;;6.60;;
19341;SDS011;9807;48.258;12.690;2023-06-10T05:43:26;7.27;;;6.57;;
19341;SDS011;9807;48.258;12.690;2023-06-10T05:45:52;9.20;;;8.10;;
19341;SDS011;9807;48.258;12.690;2023-06-10T05:48:17;8.30;;;7.20;;
19341;SDS011;9807;48.258;12.690;2023-06-10T05:50:45;7.27;;;6.13;;
19341;SDS011;9807;48.258;12.690;2023-06-10T05:53:13;8.93;;;8.03;;
19341;SDS011;9807;48.258;12.690;2023-06-10T05:55:41;9.57;;;6.60;;
19341;SDS011;9807;48.258;12.690;2023-06-10T05:58:11;9.93;;;6.13;;
19341;SDS011;9807;48.258;12.690;2023-06-10T06:00:38;7.43;;;6.73;;
19341;SDS011;9807;48.258;12.690;2023-06-10T06:03:06;9.57;;;7.53;;
19341;SDS011;9807;48.258;12.690;2023-06-10T06:05:33;5.97;;;5.30;;
19341;SDS011;9807;48.258;12.690;2023-06-10T06:08:03;6.53;;;5.60;;
19341;SDS011;9807;48.258;12.690;2023-06-10T06:10:30;7.10;;;6.10;;
19341;SDS011;9807;48.258;12.690;2023-06-10T06:12:56;8.30;;;7.00;;
19341;SDS011;9807;48.258;12.690;2023-06-10T06:15:22;7.00;;;6.30;;
19341;SDS011;9807;48.258;12.690;2023-06-10T06:17:47;9.07;;;8.10;;
19341;SDS011;9807;48.258;12.690;2023-06-10T06:20:13;7.50;;;6.70;;
19341;SDS011;9807;48.258;12.690;2023-06-10T06:22:39;10.43;;;7.60;;
19341;SDS011;9807;48.258;12.690;2023-06-10T06:25:05;8.77;;;7.53;;
19341;SDS011;9807;48.258;12.690;2023-06-10T06:27:31;9.53;;;8.53;;
19341;SDS011;9807;48.258;12.690;2023-06-10T06:30:00;9.73;;;8.73;;
19341;SDS011;9807;48.258;12.690;2023-06-10T06:32:27;12.10;;;8.67;;
19341;SDS011;9807;48.258;12.690;2023-06-10T06:34:53;9.20;;;8.30;;
19341;SDS011;9807;48.258;12.690;2023-06-10T06:37:23;7.67;;;6.77;;
19341;SDS011;9807;48.258;12.690;2023-06-10T06:39:52;8.27;;;7.37;;
19341;SDS011;9807;48.258;12.690;2023-06-10T06:42:19;9.40;;;8.33;;
19341;SDS011;9807;48.258;12.690;2023-06-10T06:44:46;7.27;;;6.57;;
19341;SDS011;9807;48.258;12.690;2023-06-10T06:47:12;12.80;;;7.83;;
19341;SDS011;9807;48.258;12.690;2023-06-10T06:49:48;11.13;;;8.20;;
19341;SDS011;9807;48.258;12.690;2023-06-10T06:52:14;8.57;;;7.37;;
19341;SDS011;9807;48.258;12.690;2023-06-10T06:54:40;10.10;;;8.07;;
19341;SDS011;9807;48.258;12.690;2023-06-10T06:57:05;8.20;;;7.37;;
19341;SDS011;9807;48.258;12.690;2023-06-10T06:59:32;9.13;;;6.40;;
19341;SDS011;9807;48.258;12.690;2023-06-10T07:01:59;7.77;;;6.43;;
19341;SDS011;9807;48.258;12.690;2023-06-10T07:04:30;8.40;;;7.60;;
19341;SDS011;9807;48.258;12.690;2023-06-10T07:06:56;7.43;;;6.53;;
19341;SDS011;9807;48.258;12.690;2023-06-10T07:09:31;7.00;;;6.30;;
19341;SDS011;9807;48.258;12.690;2023-06-10T07:12:02;8.13;;;6.70;;
19341;SDS011;9807;48.258;12.690;2023-06-10T07:14:31;7.40;;;6.70;;
19341;SDS011;9807;48.258;12.690;2023-06-10T07:16:58;9.13;;;6.70;;
19341;SDS011;9807;48.258;12.690;2023-06-10T07:19:24;6.80;;;6.10;;
19341;SDS011;9807;48.258;12.690;2023-06-10T07:21:50;6.97;;;6.10;;
19341;SDS011;9807;48.258;12.690;2023-06-10T07:24:16;7.17;;;5.97;;
19341;SDS011;9807;48.258;12.690;2023-06-10T07:26:41;6.20;;;5.60;;
19341;SDS011;9807;48.258;12.690;2023-06-10T07:29:07;7.10;;;5.50;;
19341;SDS011;9807;48.258;12.690;2023-06-10T07:31:32;7.50;;;6.00;;
19341;SDS011;9807;48.258;12.690;2023-06-10T07:33:58;7.23;;;6.40;;
19341;SDS011;9807;48.258;12.690;2023-06-10T07:36:24;6.23;;;4.97;;
19341;SDS011;9807;48.258;12.690;2023-06-10T07:38:52;5.90;;;5.40;;
19341;SDS011;9807;48.258;12.690;2023-06-10T07:41:18;5.90;;;5.30;;
19341;SDS011;9807;48.258;12.690;2023-06-10T07:43:44;6.70;;;5.30;;
19341;SDS011;9807;48.258;12.690;2023-06-10T07:46:10;5.87;;;4.90;;
19341;SDS011;9807;48.258;12.690;2023-06-10T07:48:36;4.87;;;4.47;;
19341;SDS011;9807;48.258;12.690;2023-06-10T07:51:01;5.20;;;4.70;;
19341;SDS011;9807;48.258;12.690;2023-06-10T07:53:27;5.97;;;4.73;;
19341;SDS011;9807;48.258;12.690;2023-06-10T07:55:53;5.03;;;4.63;;
19341;SDS011;9807;48.258;12.690;2023-06-10T07:58:19;4.13;;;3.80;;
19341;SDS011;9807;48.258;12.690;2023-06-10T08:00:44;5.27;;;4.40;;
19341;SDS011;9807;48.258;12.690;2023-06-10T08:03:11;4.87;;;4.47;;
19341;SDS011;9807;48.258;12.690;2023-06-10T08:05:36;4.50;;;4.10;;
19341;SDS011;9807;48.258;12.690;2023-06-10T08:08:02;4.60;;;4.20;;
19341;SDS011;9807;48.258;12.690;2023-06-10T08:10:28;4.57;;;4.13;;
19341;SDS011;9807;48.258;12.690;2023-06-10T08:12:54;4.23;;;3.93;;
19341;SDS011;9807;48.258;12.690;2023-06-10T08:15:20;5.03;;;4.10;;
19341;SDS011;9807;48.258;12.690;2023-06-10T08:17:46;4.30;;;3.90;;
19341;SDS011;9807;48.258;12.690;2023-06-10T08:20:12;4.50;;;4.10;;
19341;SDS011;9807;48.258;12.690;2023-06-10T08:22:38;4.63;;;3.50;;
19341;SDS011;9807;48.258;12.690;2023-06-10T08:25:03;4.28;;;3.88;;
19341;SDS011;9807;48.258;12.690;2023-06-10T08:27:33;4.50;;;4.10;;
19341;SDS011;9807;48.258;12.690;2023-06-10T08:29:58;4.27;;;3.70;;
19341;SDS011;9807;48.258;12.690;2023-06-10T08:32:25;4.37;;;3.97;;
19341;SDS011;9807;48.258;12.690;2023-06-10T08:34:51;5.03;;;3.33;;
19341;SDS011;9807;48.258;12.690;2023-06-10T08:37:17;3.87;;;3.53;;
19341;SDS011;9807;48.258;12.690;2023-06-10T08:39:42;4.10;;;3.70;;
19341;SDS011;9807;48.258;12.690;2023-06-10T08:44:48;4.60;;;4.20;;
19341;SDS011;9807;48.258;12.690;2023-06-10T08:47:20;4.47;;;4.07;;
19341;SDS011;9807;48.258;12.690;2023-06-10T08:49:52;4.20;;;3.80;;
19341;SDS011;9807;48.258;12.690;2023-06-10T08:52:21;4.40;;;3.63;;
19341;SDS011;9807;48.258;12.690;2023-06-10T08:54:52;7.00;;;4.27;;
19341;SDS011;9807;48.258;12.690;2023-06-10T08:57:29;4.00;;;3.70;;
19341;SDS011;9807;48.258;12.690;2023-06-10T08:59:56;5.60;;;3.80;;
19341;SDS011;9807;48.258;12.690;2023-06-10T09:02:26;4.43;;;3.83;;
19341;SDS011;9807;48.258;12.690;2023-06-10T09:04:52;4.27;;;3.90;;
19341;SDS011;9807;48.258;12.690;2023-06-10T09:07:19;4.90;;;3.70;;
19341;SDS011;9807;48.258;12.690;2023-06-10T09:09:45;4.33;;;3.60;;
19341;SDS011;9807;48.258;12.690;2023-06-10T09:12:14;22.23;;;4.83;;
19341;SDS011;9807;48.258;12.690;2023-06-10T09:14:41;4.20;;;3.90;;
19341;SDS011;9807;48.258;12.690;2023-06-10T09:17:07;4.40;;;3.80;;
19341;SDS011;9807;48.258;12.690;2023-06-10T09:19:32;10.60;;;4.60;;
19341;SDS011;9807;48.258;12.690;2023-06-10T09:21:59;4.30;;;4.00;;
19341;SDS011;9807;48.258;12.690;2023-06-10T09:24:25;5.47;;;4.30;;
19341;SDS011;9807;48.258;12.690;2023-06-10T09:27:01;5.37;;;4.50;;
19341;SDS011;9807;48.258;12.690;2023-06-10T09:29:31;4.70;;;4.20;;
19341;SDS011;9807;48.258;12.690;2023-06-10T09:32:10;4.20;;;3.80;;
19341;SDS011;9807;48.258;12.690;2023-06-10T09:34:35;5.03;;;3.93;;
19341;SDS011;9807;48.258;12.690;2023-06-10T09:37:01;21.97;;;5.70;;
19341;SDS011;9807;48.258;12.690;2023-06-10T09:39:27;6.70;;;4.80;;
19341;SDS011;9807;48.258;12.690;2023-06-10T09:41:54;6.60;;;4.50;;
19341;SDS011;9807;48.258;12.690;2023-06-10T09:44:20;4.40;;;3.97;;
19341;SDS011;9807;48.258;12.690;2023-06-10T09:46:48;4.90;;;4.50;;
19341;SDS011;9807;48.258;12.690;2023-06-10T09:49:16;4.67;;;4.27;;
19341;SDS011;9807;48.258;12.690;2023-06-10T09:51:52;5.90;;;4.07;;
19341;SDS011;9807;48.258;12.690;2023-06-10T09:54:19;4.77;;;4.37;;
19341;SDS011;9807;48.258;12.690;2023-06-10T09:56:48;5.97;;;5.47;;
19341;SDS011;9807;48.258;12.690;2023-06-10T09:59:16;6.13;;;5.53;;
19341;SDS011;9807;48.258;12.690;2023-06-10T10:01:55;7.60;;;5.93;;
19341;SDS011;9807;48.258;12.690;2023-06-10T10:04:24;6.40;;;5.80;;
19341;SDS011;9807;48.258;12.690;2023-06-10T10:06:52;6.60;;;5.90;;
19341;SDS011;9807;48.258;12.690;2023-06-10T10:09:17;8.27;;;6.40;;
19341;SDS011;9807;48.258;12.690;2023-06-10T10:11:44;6.67;;;6.07;;
19341;SDS011;9807;48.258;12.690;2023-06-10T10:14:10;7.00;;;5.50;;
19341;SDS011;9807;48.258;12.690;2023-06-10T10:16:40;5.47;;;4.97;;
19341;SDS011;9807;48.258;12.690;2023-06-10T10:19:08;5.27;;;4.77;;
19341;SDS011;9807;48.258;12.690;2023-06-10T10:21:43;5.40;;;4.90;;
19341;SDS011;9807;48.258;12.690;2023-06-10T10:24:19;5.30;;;4.80;;
19341;SDS011;9807;48.258;12.690;2023-06-10T10:26:48;5.37;;;4.60;;
19341;SDS011;9807;48.258;12.690;2023-06-10T10:29:27;4.63;;;4.23;;
19341;SDS011;9807;48.258;12.690;2023-06-10T10:32:01;5.10;;;4.60;;
19341;SDS011;9807;48.258;12.690;2023-06-10T10:37:24;4.20;;;3.80;;
19341;SDS011;9807;48.258;12.690;2023-06-10T10:39:51;6.13;;;4.30;;
19341;SDS011;9807;48.258;12.690;2023-06-10T10:42:17;4.37;;;3.97;;
19341;SDS011;9807;48.258;12.690;2023-06-10T10:44:43;8.10;;;4.07;;
19341;SDS011;9807;48.258;12.690;2023-06-10T10:47:10;6.97;;;3.83;;
19341;SDS011;9807;48.258;12.690;2023-06-10T10:49:37;4.00;;;3.70;;
19341;SDS011;9807;48.258;12.690;2023-06-10T10:52:04;4.47;;;4.07;;
19341;SDS011;9807;48.258;12.690;2023-06-10T10:54:36;5.73;;;3.83;;
19341;SDS011;9807;48.258;12.690;2023-06-10T10:57:14;4.50;;;4.10;;
19341;SDS011;9807;48.258;12.690;2023-06-10T10:59:59;7.00;;;3.70;;
19341;SDS011;9807;48.258;12.690;2023-06-10T11:02:36;4.70;;;4.20;;
19341;SDS011;9807;48.258;12.690;2023-06-10T11:05:06;6.90;;;4.20;;
19341;SDS011;9807;48.258;12.690;2023-06-10T11:07:33;4.60;;;4.20;;
19341;SDS011;9807;48.258;12.690;2023-06-10T11:12:40;5.30;;;4.40;;
19341;SDS011;9807;48.258;12.690;2023-06-10T11:15:07;6.50;;;4.17;;
19341;SDS011;9807;48.258;12.690;2023-06-10T11:17:33;4.37;;;3.97;;
19341;SDS011;9807;48.258;12.690;2023-06-10T11:19:58;9.63;;;4.50;;
19341;SDS011;9807;48.258;12.690;2023-06-10T11:22:25;4.73;;;4.20;;
19341;SDS011;9807;48.258;12.690;2023-06-10T11:24:50;4.30;;;3.90;;
19341;SDS011;9807;48.258;12.690;2023-06-10T11:27:20;4.70;;;4.20;;
19341;SDS011;9807;48.258;12.690;2023-06-10T11:29:56;4.20;;;3.87;;
19341;SDS011;9807;48.258;12.690;2023-06-10T11:32:34;4.33;;;3.93;;
19341;SDS011;9807;48.258;12.690;2023-06-10T11:35:04;4.47;;;4.03;;
19341;SDS011;9807;48.258;12.690;2023-06-10T11:37:30;4.93;;;3.80;;
19341;SDS011;9807;48.258;12.690;2023-06-10T11:39:56;5.37;;;4.70;;
19341;SDS011;9807;48.258;12.690;2023-06-10T11:42:25;4.60;;;4.20;;
19341;SDS011;9807;48.258;12.690;2023-06-10T11:44:51;8.13;;;4.67;;
19341;SDS011;9807;48.258;12.690;2023-06-10T11:47:18;5.60;;;4.83;;
19341;SDS011;9807;48.258;12.690;2023-06-10T11:49:45;5.50;;;4.90;;
19341;SDS011;9807;48.258;12.690;2023-06-10T11:52:25;6.57;;;4.50;;
19341;SDS011;9807;48.258;12.690;2023-06-10T11:54:58;5.47;;;5.00;;
19341;SDS011;9807;48.258;12.690;2023-06-10T11:57:24;8.63;;;5.10;;
19341;SDS011;9807;48.258;12.690;2023-06-10T11:59:49;5.13;;;4.67;;
19341;SDS011;9807;48.258;12.690;2023-06-10T12:02:15;5.60;;;5.10;;
19341;SDS011;9807;48.258;12.690;2023-06-10T12:04:42;6.57;;;5.60;;
19341;SDS011;9807;48.258;12.690;2023-06-10T12:07:07;5.60;;;5.10;;
19341;SDS011;9807;48.258;12.690;2023-06-10T12:09:33;5.27;;;4.87;;
19341;SDS011;9807;48.258;12.690;2023-06-10T12:12:00;9.57;;;5.50;;
19341;SDS011;9807;48.258;12.690;2023-06-10T12:20:01;4.93;;;4.53;;
19341;SDS011;9807;48.258;12.690;2023-06-10T12:22:38;5.07;;;4.67;;
19341;SDS011;9807;48.258;12.690;2023-06-10T12:25:08;6.53;;;4.73;;
19341;SDS011;9807;48.258;12.690;2023-06-10T12:27:35;5.10;;;4.60;;
19341;SDS011;9807;48.258;12.690;2023-06-10T12:30:02;4.50;;;4.10;;
19341;SDS011;9807;48.258;12.690;2023-06-10T12:32:44;4.93;;;4.53;;
19341;SDS011;9807;48.258;12.690;2023-06-10T12:35:12;5.53;;;5.03;;
19341;SDS011;9807;48.258;12.690;2023-06-10T12:37:39;7.13;;;4.87;;
19341;SDS011;9807;48.258;12.690;2023-06-10T12:40:06;5.73;;;5.10;;
19341;SDS011;9807;48.258;12.690;2023-06-10T12:42:34;5.60;;;4.97;;
19341;SDS011;9807;48.258;12.690;2023-06-10T12:45:01;6.03;;;5.43;;
19341;SDS011;9807;48.258;12.690;2023-06-10T12:47:30;8.27;;;5.40;;
19341;SDS011;9807;48.258;12.690;2023-06-10T12:50:00;12.83;;;5.30;;
19341;SDS011;9807;48.258;12.690;2023-06-10T12:52:27;7.20;;;5.07;;
19341;SDS011;9807;48.258;12.690;2023-06-10T12:54:54;5.37;;;4.87;;
19341;SDS011;9807;48.258;12.690;2023-06-10T12:57:21;5.67;;;5.17;;
19341;SDS011;9807;48.258;12.690;2023-06-10T12:59:48;8.10;;;5.40;;
19341;SDS011;9807;48.258;12.690;2023-06-10T13:02:20;5.83;;;5.23;;
19341;SDS011;9807;48.258;12.690;2023-06-10T13:04:48;5.77;;;4.93;;
19341;SDS011;9807;48.258;12.690;2023-06-10T13:07:15;6.83;;;5.53;;
19341;SDS011;9807;48.258;12.690;2023-06-10T13:09:41;5.53;;;5.03;;
19341;SDS011;9807;48.258;12.690;2023-06-10T13:12:07;7.77;;;5.33;;
19341;SDS011;9807;48.258;12.690;2023-06-10T13:14:34;9.33;;;5.30;;
19341;SDS011;9807;48.258;12.690;2023-06-10T13:17:02;5.37;;;4.87;;
19341;SDS011;9807;48.258;12.690;2023-06-10T13:19:31;5.60;;;5.10;;
19341;SDS011;9807;48.258;12.690;2023-06-10T13:21:59;4.67;;;4.27;;
19341;SDS011;9807;48.258;12.690;2023-06-10T13:24:24;7.67;;;4.90;;
19341;SDS011;9807;48.258;12.690;2023-06-10T13:26:51;5.20;;;4.80;;
19341;SDS011;9807;48.258;12.690;2023-06-10T13:29:20;5.10;;;4.60;;
19341;SDS011;9807;48.258;12.690;2023-06-10T13:31:45;4.80;;;4.40;;
19341;SDS011;9807;48.258;12.690;2023-06-10T13:34:11;5.00;;;4.50;;
19341;SDS011;9807;48.258;12.690;2023-06-10T13:36:37;7.00;;;4.43;;
19341;SDS011;9807;48.258;12.690;2023-06-10T13:39:02;4.80;;;4.40;;
19341;SDS011;9807;48.258;12.690;2023-06-10T13:41:28;5.37;;;4.87;;
19341;SDS011;9807;48.258;12.690;2023-06-10T13:44:02;7.70;;;4.87;;
19341;SDS011;9807;48.258;12.690;2023-06-10T13:46:28;8.83;;;5.13;;
19341;SDS011;9807;48.258;12.690;2023-06-10T13:48:55;7.20;;;5.10;;
19341;SDS011;9807;48.258;12.690;2023-06-10T13:51:21;7.70;;;4.50;;
19341;SDS011;9807;48.258;12.690;2023-06-10T13:53:46;6.17;;;5.10;;
19341;SDS011;9807;48.258;12.690;2023-06-10T13:56:12;9.93;;;4.90;;
19341;SDS011;9807;48.258;12.690;2023-06-10T13:58:39;6.73;;;4.70;;
19341;SDS011;9807;48.258;12.690;2023-06-10T14:01:06;9.73;;;4.73;;
19341;SDS011;9807;48.258;12.690;2023-06-10T14:03:33;5.00;;;4.50;;
19341;SDS011;9807;48.258;12.690;2023-06-10T14:05:58;5.40;;;4.90;;
19341;SDS011;9807;48.258;12.690;2023-06-10T14:08:24;6.93;;;4.60;;
19341;SDS011;9807;48.258;12.690;2023-06-10T14:10:52;7.90;;;5.00;;
19341;SDS011;9807;48.258;12.690;2023-06-10T14:13:18;5.57;;;5.07;;
19341;SDS011;9807;48.258;12.690;2023-06-10T14:15:44;5.47;;;4.70;;
19341;SDS011;9807;48.258;12.690;2023-06-10T14:18:10;5.90;;;4.43;;
19341;SDS011;9807;48.258;12.690;2023-06-10T14:20:36;4.70;;;4.30;;
19341;SDS011;9807;48.258;12.690;2023-06-10T14:23:02;4.23;;;3.83;;
19341;SDS011;9807;48.258;12.690;2023-06-10T14:25:27;4.30;;;3.90;;
19341;SDS011;9807;48.258;12.690;2023-06-10T14:27:53;4.10;;;3.73;;
19341;SDS011;9807;48.258;12.690;2023-06-10T14:30:19;4.17;;;3.87;;
19341;SDS011;9807;48.258;12.690;2023-06-10T14:32:44;5.70;;;4.03;;
19341;SDS011;9807;48.258;12.690;2023-06-10T14:35:10;4.20;;;3.90;;
19341;SDS011;9807;48.258;12.690;2023-06-10T14:37:36;4.23;;;3.83;;
19341;SDS011;9807;48.258;12.690;2023-06-10T14:40:03;4.50;;;3.83;;
19341;SDS011;9807;48.258;12.690;2023-06-10T14:42:32;4.30;;;3.90;;
19341;SDS011;9807;48.258;12.690;2023-06-10T14:44:58;5.27;;;4.07;;
19341;SDS011;9807;48.258;12.690;2023-06-10T14:47:24;4.10;;;3.70;;
19341;SDS011;9807;48.258;12.690;2023-06-10T14:49:50;5.13;;;3.97;;
19341;SDS011;9807;48.258;12.690;2023-06-10T14:52:15;4.90;;;4.03;;
19341;SDS011;9807;48.258;12.690;2023-06-10T14:54:41;4.63;;;4.23;;
19341;SDS011;9807;48.258;12.690;2023-06-10T14:57:07;4.33;;;3.77;;
19341;SDS011;9807;48.258;12.690;2023-06-10T14:59:33;5.37;;;3.97;;
19341;SDS011;9807;48.258;12.690;2023-06-10T15:02:02;3.90;;;3.50;;
19341;SDS011;9807;48.258;12.690;2023-06-10T15:04:28;5.67;;;4.10;;
19341;SDS011;9807;48.258;12.690;2023-06-10T15:06:54;8.70;;;3.97;;
19341;SDS011;9807;48.258;12.690;2023-06-10T15:09:19;4.30;;;3.90;;
19341;SDS011;9807;48.258;12.690;2023-06-10T15:11:45;4.57;;;3.80;;